Time;durP1;ratioP1;P1;durP2;ratioP2;P2;SDS_P1;SDS_P2;PMS_P1;PMS_P2;Temp;Humidity;BMP_temperature;BMP_pressure;BME280_temperature;BME280_humidity;BME280_pressure;Samples;Min_cycle;Max_cycle;Signal;HPM_P1;HPM_P2
2023/05/31 00:01:08;;;;;;;6.32;5.72;;;;;;;16.57;100.00;102028.44;5055335;28;20414;-70
2023/05/31 00:03:35;;;;;;;7.53;5.80;;;;;;;17.11;100.00;102066.72;5073012;28;20051;-70
2023/05/31 00:06:05;;;;;;;6.38;5.72;;;;;;;16.55;100.00;102000.25;5072939;28;20040;-70
2023/05/31 00:08:30;;;;;;;8.25;6.10;;;;;;;16.65;100.00;102034.28;5053781;28;20434;-70
2023/05/31 00:10:55;;;;;;;10.90;5.80;;;;;;;16.65;100.00;101990.63;5072639;28;20030;-70
2023/05/31 00:13:21;;;;;;;7.85;5.57;;;;;;;16.48;100.00;101996.94;5054971;28;20044;-70
2023/05/31 00:15:46;;;;;;;9.25;6.82;;;;;;;16.75;100.00;102013.53;5054927;28;20173;-72
2023/05/31 00:18:12;;;;;;;10.82;6.47;;;;;;;16.64;100.00;101997.47;5072779;28;20487;-71
2023/05/31 00:20:37;;;;;;;8.88;6.40;;;;;;;16.76;100.00;102017.78;5073333;28;20033;-71
2023/05/31 00:23:02;;;;;;;11.90;6.70;;;;;;;16.33;100.00;101955.28;5072828;28;20067;-72
2023/05/31 00:25:28;;;;;;;14.57;7.57;;;;;;;16.26;100.00;101953.72;5072986;28;20400;-71
2023/05/31 00:27:55;;;;;;;16.20;8.57;;;;;;;15.88;100.00;101935.63;5072758;28;20060;-69
2023/05/31 00:30:20;;;;;;;14.75;8.50;;;;;;;16.06;100.00;101966.09;5072671;28;20031;-70
2023/05/31 00:32:45;;;;;;;14.15;8.82;;;;;;;15.69;100.00;101944.53;5072398;28;20099;-73
2023/05/31 00:35:11;;;;;;;13.13;8.27;;;;;;;16.03;100.00;101918.22;5072674;28;20025;-70
2023/05/31 00:37:37;;;;;;;10.23;7.40;;;;;;;16.14;100.00;101903.44;5054048;28;20040;-70
2023/05/31 00:40:06;;;;;;;14.60;7.78;;;;;;;15.81;100.00;101821.16;5072464;28;20040;-70
2023/05/31 00:42:32;;;;;;;9.55;7.82;;;;;;;16.10;100.00;101836.84;5054265;28;20029;-71
2023/05/31 00:44:57;;;;;;;9.82;7.00;;;;;;;15.55;100.00;101783.22;5072365;28;20029;-70
2023/05/31 00:47:25;;;;;;;11.10;6.32;;;;;;;16.12;100.00;101804.28;5072054;28;20043;-70
2023/05/31 00:49:51;;;;;;;12.13;6.20;;;;;;;16.20;100.00;101815.25;5072228;28;20025;-71
2023/05/31 00:52:17;;;;;;;8.98;6.00;;;;;;;16.20;100.00;101816.06;5072437;28;20025;-71
2023/05/31 00:54:43;;;;;;;10.02;6.07;;;;;;;15.91;100.00;101804.72;5072618;28;20028;-70
2023/05/31 00:57:09;;;;;;;9.00;5.53;;;;;;;16.25;100.00;101811.69;5071830;28;20078;-70
2023/05/31 00:59:35;;;;;;;8.15;6.38;;;;;;;15.90;100.00;101750.03;5072119;28;20036;-69
2023/05/31 01:02:03;;;;;;;9.35;5.82;;;;;;;16.17;100.00;101772.50;5072196;28;20031;-70
2023/05/31 01:04:29;;;;;;;8.68;6.30;;;;;;;15.93;100.00;101774.75;5053651;28;20513;-70
2023/05/31 01:07:00;;;;;;;11.25;6.25;;;;;;;16.02;100.00;101800.22;5072419;28;20029;-70
2023/05/31 01:09:26;;;;;;;9.40;6.00;;;;;;;16.16;100.00;101783.63;5071928;28;20115;-70
2023/05/31 01:11:55;;;;;;;9.23;6.18;;;;;;;16.16;100.00;101793.09;5071957;28;20029;-70
2023/05/31 01:14:35;;;;;;;9.25;6.15;;;;;;;16.52;100.00;101783.75;5071867;28;20483;-72
2023/05/31 01:17:31;;;;;;;7.93;6.15;;;;;;;16.21;100.00;101753.59;5072012;28;20383;-70
2023/05/31 01:20:17;;;;;;;12.55;6.70;;;;;;;15.83;100.00;101696.28;4999428;28;20081;-71
2023/05/31 01:23:18;;;;;;;8.05;6.80;;;;;;;15.88;100.00;101746.66;5053634;28;20039;-71
2023/05/31 01:25:47;;;;;;;12.43;6.53;;;;;;;15.96;100.00;101747.31;5053684;28;20036;-70
2023/05/31 01:28:14;;;;;;;9.48;7.03;;;;;;;15.68;100.00;101686.38;5053917;28;20391;-70
2023/05/31 01:30:40;;;;;;;12.23;6.88;;;;;;;15.50;100.00;101674.78;5071273;28;20025;-70
2023/05/31 01:33:12;;;;;;;14.68;7.07;;;;;;;15.90;100.00;101703.00;5071753;28;20036;-69
2023/05/31 01:35:38;;;;;;;10.35;6.40;;;;;;;15.74;100.00;101675.97;5053077;28;20020;-70
2023/05/31 01:38:03;;;;;;;7.90;6.63;;;;;;;16.09;100.00;101711.94;5053465;28;20040;-70
2023/05/31 01:40:30;;;;;;;11.18;7.28;;;;;;;15.90;100.00;101690.16;5071411;28;20024;-70
2023/05/31 01:42:57;;;;;;;10.85;6.78;;;;;;;15.85;100.00;101674.00;5071383;28;20028;-71
2023/05/31 01:45:24;;;;;;;10.77;7.28;;;;;;;15.68;100.00;101691.50;5053677;28;20032;-71
2023/05/31 01:47:52;;;;;;;11.48;7.53;;;;;;;15.61;100.00;101658.28;5070743;28;20032;-71
2023/05/31 01:50:19;;;;;;;11.07;7.57;;;;;;;15.70;100.00;101623.06;5071506;28;20031;-70
2023/05/31 01:52:44;;;;;;;12.30;7.35;;;;;;;15.85;100.00;101631.25;5071126;28;20024;-70
2023/05/31 01:55:10;;;;;;;10.73;6.75;;;;;;;15.68;100.00;101568.41;5070640;28;20044;-72
2023/05/31 01:57:40;;;;;;;12.02;6.80;;;;;;;16.06;100.00;101601.69;5053192;28;20471;-71
2023/05/31 02:00:12;;;;;;;9.35;6.93;;;;;;;16.01;100.00;101629.16;5071021;28;20033;-71
2023/05/31 02:02:44;;;;;;;11.70;7.78;;;;;;;16.00;100.00;101596.72;5071111;28;20028;-72
2023/05/31 02:05:13;;;;;;;;;;;;;;;15.69;100.00;101611.16;5070936;28;20032;-71
2023/05/31 02:07:53;;;;;;;9.68;7.55;;;;;;;15.48;100.00;101556.91;5071130;28;20357;-71
2023/05/31 02:10:19;;;;;;;9.27;6.90;;;;;;;15.84;100.00;101560.31;5070772;28;20032;-71
2023/05/31 02:12:45;;;;;;;12.25;6.97;;;;;;;15.59;100.00;101569.44;5070841;28;20036;-70
2023/05/31 02:15:12;;;;;;;11.75;7.47;;;;;;;15.87;100.00;101546.56;5052474;28;20457;-72
2023/05/31 02:17:42;;;;;;;9.55;6.90;;;;;;;15.89;100.00;101540.53;5031880;28;20088;-70
2023/05/31 02:20:13;;;;;;;11.23;6.68;;;;;;;15.63;100.00;101495.00;5031075;28;20030;-70
2023/05/31 02:22:47;;;;;;;10.90;6.65;;;;;;;15.80;100.00;101498.88;5028931;28;20029;-71
2023/05/31 02:25:14;;;;;;;10.30;7.10;;;;;;;15.66;100.00;101552.22;5029748;28;20061;-71
2023/05/31 02:27:41;;;;;;;11.05;6.80;;;;;;;15.35;100.00;101500.78;5030751;28;20029;-71
2023/05/31 02:30:07;;;;;;;13.25;7.45;;;;;;;14.65;100.00;101402.47;5028981;28;20341;-71
2023/05/31 02:32:35;;;;;;;10.50;6.70;;;;;;;15.49;100.00;101535.50;5028705;28;20029;-70
2023/05/31 02:35:04;;;;;;;13.20;7.32;;;;;;;15.48;100.00;101520.16;5030605;28;20051;-71
2023/05/31 02:37:30;;;;;;;16.58;7.80;;;;;;;15.35;100.00;101523.88;5030179;28;20034;-70
2023/05/31 02:39:55;;;;;;;15.88;8.55;;;;;;;15.32;100.00;101529.88;5029215;28;20025;-70
2023/05/31 02:42:21;;;;;;;14.60;10.27;;;;;;;15.14;100.00;101530.28;5030285;28;20041;-71
2023/05/31 02:44:46;;;;;;;16.23;10.45;;;;;;;14.52;100.00;101434.31;5030636;28;20061;-70
2023/05/31 02:47:12;;;;;;;16.55;10.23;;;;;;;14.71;100.00;101453.53;5030774;28;20029;-69
2023/05/31 02:49:38;;;;;;;17.83;10.45;;;;;;;15.29;100.00;101509.44;5030628;28;20022;-69
2023/05/31 02:52:04;;;;;;;14.80;9.60;;;;;;;15.53;100.00;101508.91;5030925;28;20025;-70
2023/05/31 02:54:29;;;;;;;21.77;10.38;;;;;;;14.92;100.00;101444.53;5029690;28;20360;-70
2023/05/31 02:56:55;;;;;;;17.52;11.48;;;;;;;15.17;100.00;101507.16;5046005;28;20112;-72
2023/05/31 02:59:20;;;;;;;16.55;11.73;;;;;;;14.95;100.00;101498.28;5030479;28;20025;-69
2023/05/31 03:01:46;;;;;;;20.25;12.15;;;;;;;14.87;100.00;101505.28;5030292;28;20025;-71
2023/05/31 03:04:11;;;;;;;18.13;12.07;;;;;;;14.94;100.00;101522.19;5030247;28;20025;-70
2023/05/31 03:06:39;;;;;;;18.67;13.38;;;;;;;15.08;100.00;101515.06;5030245;28;20044;-71
2023/05/31 03:09:05;;;;;;;22.95;13.75;;;;;;;14.92;100.00;101529.06;5030563;28;20029;-68
2023/05/31 03:11:30;;;;;;;24.10;13.20;;;;;;;14.33;100.00;101424.47;5028747;28;20034;-69
2023/05/31 03:13:56;;;;;;;20.35;13.20;;;;;;;15.24;100.00;101513.84;5029824;28;20483;-71
2023/05/31 03:16:23;;;;;;;16.60;11.90;;;;;;;15.01;100.00;101508.38;5044504;28;20083;-70
2023/05/31 03:18:48;;;;;;;20.23;11.82;;;;;;;15.00;100.00;101511.81;5052250;28;20471;-70
2023/05/31 03:21:15;;;;;;;14.68;10.85;;;;;;;14.34;100.00;101472.22;5052143;28;20035;-70
2023/05/31 03:23:40;;;;;;;13.40;9.55;;;;;;;14.91;100.00;101535.06;5051673;28;20025;-70
2023/05/31 03:26:06;;;;;;;17.45;9.05;;;;;;;14.97;100.00;101542.63;5063602;28;20029;-73
2023/05/31 03:28:31;;;;;;;15.52;8.45;;;;;;;15.12;100.00;101532.03;5032258;28;20043;-71
2023/05/31 03:30:56;;;;;;;15.07;8.50;;;;;;;14.78;100.00;101516.53;5050162;28;20029;-69
2023/05/31 03:33:22;;;;;;;12.27;8.80;;;;;;;14.82;100.00;101495.97;5050001;28;20508;-70
2023/05/31 03:35:48;;;;;;;10.77;8.43;;;;;;;14.68;100.00;101468.09;5032184;28;20060;-73
2023/05/31 03:38:13;;;;;;;17.13;9.15;;;;;;;15.02;100.00;101545.91;5048780;28;20025;-70
2023/05/31 03:40:38;;;;;;;17.52;9.07;;;;;;;14.83;100.00;101531.81;5055404;28;20029;-71
2023/05/31 03:43:04;;;;;;;16.27;8.77;;;;;;;14.98;100.00;101531.50;5071599;28;20120;-71
2023/05/31 03:45:30;;;;;;;17.02;9.57;;;;;;;14.72;100.00;101495.31;5055573;28;20025;-71
2023/05/31 03:47:55;;;;;;;33.75;23.65;;;;;;;14.68;100.00;101437.38;5072263;28;20107;-69
2023/05/31 03:50:20;;;;;;;29.67;23.27;;;;;;;14.94;100.00;101494.00;5055491;28;20024;-69
2023/05/31 03:52:46;;;;;;;27.88;20.23;;;;;;;15.58;100.00;101512.22;5073219;28;20606;-71
2023/05/31 03:55:11;;;;;;;25.38;17.38;;;;;;;15.11;100.00;101479.13;5073528;28;20029;-72
2023/05/31 03:57:36;;;;;;;22.35;15.70;;;;;;;15.67;100.00;101528.28;5072494;28;20158;-71
2023/05/31 04:00:03;;;;;;;18.33;11.88;;;;;;;15.77;100.00;101538.25;5072756;28;20036;-73
2023/05/31 04:02:28;;;;;;;12.82;8.88;;;;;;;15.69;100.00;101542.72;5055025;28;20029;-72
2023/05/31 04:04:53;;;;;;;15.65;9.32;;;;;;;15.37;100.00;101517.81;5073388;28;20102;-71
2023/05/31 04:07:19;;;;;;;15.38;10.25;;;;;;;15.79;100.00;101530.50;5073373;28;20036;-72
2023/05/31 04:09:44;;;;;;;21.23;11.95;;;;;;;15.90;100.00;101536.25;5055509;28;20036;-72
2023/05/31 04:12:10;;;;;;;14.45;12.40;;;;;;;15.80;100.00;101493.75;5073093;28;20036;-72
2023/05/31 04:14:35;;;;;;;20.08;13.57;;;;;;;15.78;100.00;101485.25;5073297;28;20102;-73
2023/05/31 04:17:01;;;;;;;17.50;14.77;;;;;;;16.02;100.00;101497.44;5072984;28;20610;-73
2023/05/31 04:19:26;;;;;;;15.15;11.77;;;;;;;16.08;100.00;101556.31;5073513;28;20119;-73
2023/05/31 04:21:51;;;;;;;14.10;9.57;;;;;;;16.04;100.00;101524.75;5055123;28;20021;-72
2023/05/31 04:24:17;;;;;;;10.93;8.52;;;;;;;16.02;100.00;101482.06;5055065;28;20036;-70
2023/05/31 04:26:42;;;;;;;10.40;7.68;;;;;;;15.79;100.00;101551.03;5072429;28;20024;-72
2023/05/31 04:29:08;;;;;;;10.80;7.32;;;;;;;16.19;100.00;101551.75;5072311;28;20033;-71
2023/05/31 04:31:36;;;;;;;12.20;8.10;;;;;;;16.20;100.00;101520.91;5072660;28;20035;-70
2023/05/31 04:34:03;;;;;;;10.27;7.50;;;;;;;16.53;100.00;101531.19;5072199;28;20032;-72
2023/05/31 04:36:32;;;;;;;15.20;8.30;;;;;;;16.41;100.00;101552.88;5055598;28;20129;-72
2023/05/31 04:38:58;;;;;;;10.63;8.93;;;;;;;16.33;100.00;101517.13;5054846;28;20037;-73
2023/05/31 04:41:26;;;;;;;11.13;8.35;;;;;;;16.16;100.00;101532.13;5073204;28;20054;-73
2023/05/31 04:43:56;;;;;;;11.10;7.80;;;;;;;16.45;100.00;101539.91;5072838;28;20028;-71
2023/05/31 04:46:22;;;;;;;11.75;8.02;;;;;;;17.01;100.00;101510.09;5072892;28;20486;-72
2023/05/31 04:48:49;;;;;;;10.80;8.48;;;;;;;16.97;100.00;101505.94;5073374;28;20124;-76
2023/05/31 04:51:16;;;;;;;9.90;8.13;;;;;;;16.87;100.00;101527.63;5073067;28;20403;-73
2023/05/31 04:53:41;;;;;;;12.43;8.25;;;;;;;16.09;100.00;101442.50;5072620;28;20088;-74
2023/05/31 04:56:09;;;;;;;15.88;9.68;;;;;;;16.81;100.00;101520.09;5073004;28;20029;-73
2023/05/31 04:58:43;;;;;;;11.45;10.18;;;;;;;16.55;100.00;101543.09;5072096;28;20021;-73
2023/05/31 05:01:08;;;;;;;10.68;9.57;;;;;;;16.63;100.00;101440.16;5054619;28;20028;-72
2023/05/31 05:03:34;;;;;;;11.80;9.77;;;;;;;17.43;100.00;101548.25;5072041;28;20483;-73
2023/05/31 05:06:18;;;;;;;14.05;9.38;;;;;;;17.60;100.00;101548.56;5071989;28;20037;-73
2023/05/31 05:08:45;;;;;;;10.52;9.20;;;;;;;17.15;100.00;101491.69;5066897;28;20033;-74
2023/05/31 05:11:11;;;;;;;11.45;9.57;;;;;;;17.56;100.00;101498.13;5071958;28;20507;-73
2023/05/31 05:13:37;;;;;;;12.75;8.63;;;;;;;17.66;100.00;101574.97;5054268;28;20215;-73
2023/05/31 05:16:02;;;;;;;12.95;8.35;;;;;;;17.19;100.00;101521.56;5053614;28;20062;-74
2023/05/31 05:18:29;;;;;;;9.50;8.43;;;;;;;17.85;100.00;101511.72;5071973;28;20029;-73
2023/05/31 05:20:54;;;;;;;9.75;7.95;;;;;;;18.62;100.00;101573.44;5071470;28;20044;-73
2023/05/31 05:23:20;;;;;;;11.23;8.95;;;;;;;18.38;100.00;101597.44;5071796;28;20407;-74
2023/05/31 05:25:45;;;;;;;10.38;8.20;;;;;;;17.89;100.00;101610.25;5054229;28;20096;-72
2023/05/31 05:28:10;;;;;;;11.48;8.65;;;;;;;17.92;100.00;101553.53;5071353;28;20119;-73
2023/05/31 05:30:36;;;;;;;10.30;8.05;;;;;;;18.52;100.00;101581.56;5071730;28;20025;-73
2023/05/31 05:33:01;;;;;;;13.13;8.50;;;;;;;19.27;100.00;101590.81;5072153;28;20021;-73
2023/05/31 05:35:27;;;;;;;12.90;8.48;;;;;;;19.34;100.00;101630.97;5071531;28;20514;-73
2023/05/31 05:37:53;;;;;;;9.85;8.55;;;;;;;19.74;100.00;101636.31;5071741;28;20031;-72
2023/05/31 05:40:19;;;;;;;9.63;8.63;;;;;;;19.28;100.00;101618.28;5071580;28;20043;-74
2023/05/31 05:42:45;;;;;;;10.70;8.60;;;;;;;19.12;100.00;101640.38;5070233;28;20029;-73
2023/05/31 05:45:11;;;;;;;9.98;8.02;;;;;;;19.81;100.00;101708.28;5071639;28;20028;-73
2023/05/31 05:47:36;;;;;;;11.50;8.85;;;;;;;19.66;100.00;101659.84;5053085;28;20193;-73
2023/05/31 05:50:02;;;;;;;12.10;8.18;;;;;;;20.12;100.00;101699.34;5071313;28;20029;-73
2023/05/31 05:52:27;;;;;;;9.07;7.70;;;;;;;20.39;100.00;101699.13;5071652;28;20123;-73
2023/05/31 05:54:53;;;;;;;9.75;8.50;;;;;;;19.97;100.00;101724.03;5071343;28;20025;-73
2023/05/31 05:57:25;;;;;;;14.55;7.80;;;;;;;20.38;100.00;101776.72;5071564;28;20047;-74
2023/05/31 05:59:50;;;;;;;9.45;8.32;;;;;;;20.79;100.00;101795.72;5053373;28;20060;-73
2023/05/31 06:02:16;;;;;;;9.10;8.18;;;;;;;20.81;100.00;101818.03;5070894;28;20029;-72
2023/05/31 06:04:42;;;;;;;10.52;7.57;;;;;;;21.36;100.00;101816.59;5070594;28;20024;-73
2023/05/31 06:07:07;;;;;;;10.27;7.65;;;;;;;20.67;100.00;101834.09;5070547;28;20036;-74
2023/05/31 06:09:32;;;;;;;10.00;7.20;;;;;;;21.25;100.00;101795.53;5071680;28;20033;-74
2023/05/31 06:11:58;;;;;;;7.82;6.50;;;;;;;20.45;100.00;101789.31;5070932;28;20131;-74
2023/05/31 06:14:23;;;;;;;8.88;7.25;;;;;;;21.19;100.00;101793.19;5071050;28;20475;-74
2023/05/31 06:16:49;;;;;;;9.07;7.72;;;;;;;21.28;100.00;101857.47;5052443;28;20049;-74
2023/05/31 06:19:14;;;;;;;11.00;7.85;;;;;;;21.28;100.00;101876.44;5052883;28;20098;-73
2023/05/31 06:21:40;;;;;;;10.18;7.90;;;;;;;20.69;100.00;101823.69;5070690;28;20454;-74
2023/05/31 06:24:05;;;;;;;12.80;8.82;;;;;;;21.03;100.00;101795.59;5071094;28;20031;-73
2023/05/31 06:26:31;;;;;;;12.55;8.82;;;;;;;21.64;100.00;101897.34;5071356;28;20479;-73
2023/05/31 06:29:04;;;;;;;11.15;8.05;;;;;;;21.90;100.00;101886.75;5071158;28;20028;-72
2023/05/31 06:31:31;;;;;;;9.50;7.40;;;;;;;22.62;100.00;101908.47;5052788;28;20063;-73
2023/05/31 06:33:56;;;;;;;11.48;6.88;;;;;;;21.66;100.00;101861.03;5071164;28;20024;-73
2023/05/31 06:36:22;;;;;;;13.27;7.25;;;;;;;21.82;100.00;101842.19;5052873;28;20028;-73
2023/05/31 06:38:47;;;;;;;9.73;6.75;;;;;;;21.84;100.00;101842.97;5071244;28;20024;-73
2023/05/31 06:41:13;;;;;;;10.40;7.05;;;;;;;22.16;100.00;101875.19;5070707;28;20490;-73
2023/05/31 06:43:40;;;;;;;11.63;7.65;;;;;;;22.09;100.00;101821.94;5053189;28;20092;-75
2023/05/31 06:46:07;;;;;;;15.48;9.73;;;;;;;22.54;100.00;101881.22;5052960;28;20036;-74
2023/05/31 06:48:33;;;;;;;18.67;11.40;;;;;;;22.98;100.00;101877.34;5070917;28;20024;-74
2023/05/31 06:50:58;;;;;;;15.40;8.65;;;;;;;23.38;100.00;101855.47;5070860;28;20791;-74
2023/05/31 06:53:24;;;;;;;15.35;9.45;;;;;;;23.81;100.00;101893.91;5070597;28;20559;-73
2023/05/31 06:55:49;;;;;;;8.10;7.22;;;;;;;23.74;100.00;101877.81;5070637;28;20033;-72
2023/05/31 06:58:17;;;;;;;8.75;6.97;;;;;;;22.84;100.00;101880.59;5070869;28;20115;-73
2023/05/31 07:00:42;;;;;;;9.90;6.68;;;;;;;22.75;100.00;101862.06;5070723;28;20052;-73
2023/05/31 07:03:07;;;;;;;11.13;6.60;;;;;;;22.31;100.00;101797.56;5052095;28;20033;-73
2023/05/31 07:05:33;;;;;;;8.60;6.60;;;;;;;24.10;100.00;101895.84;5070795;28;20094;-74
2023/05/31 07:07:58;;;;;;;7.68;6.40;;;;;;;23.28;100.00;101818.72;5070296;28;20033;-73
2023/05/31 07:10:24;;;;;;;11.95;6.80;;;;;;;23.48;100.00;101818.56;5052426;28;20056;-73
2023/05/31 07:12:50;;;;;;;8.60;6.20;;;;;;;23.23;100.00;101751.44;5070735;28;20025;-72
2023/05/31 07:15:16;;;;;;;9.98;6.13;;;;;;;24.06;100.00;101819.78;5071225;28;20035;-73
2023/05/31 07:17:41;;;;;;;8.00;6.55;;;;;;;24.58;100.00;101835.91;5071864;28;20135;-74
2023/05/31 07:20:08;;;;;;;8.90;6.57;;;;;;;24.81;100.00;101850.28;5074171;28;20098;-73
2023/05/31 07:22:34;;;;;;;8.30;6.75;;;;;;;24.68;100.00;101854.47;5074394;28;20504;-74
2023/05/31 07:24:59;;;;;;;10.30;6.75;;;;;;;24.38;100.00;101809.38;5074121;28;20063;-74
2023/05/31 07:27:24;;;;;;;8.15;6.50;;;;;;;24.30;100.00;101808.94;5073928;28;20457;-73
2023/05/31 07:29:50;;;;;;;9.40;6.22;;;;;;;24.38;100.00;101763.41;5074555;28;20057;-74
2023/05/31 07:32:15;;;;;;;10.32;6.60;;;;;;;24.57;100.00;101810.84;5073674;28;20480;-73
2023/05/31 07:34:41;;;;;;;6.97;6.25;;;;;;;24.37;100.00;101703.63;5073765;28;20032;-74
2023/05/31 07:37:07;;;;;;;7.38;6.30;;;;;;;24.94;100.00;101715.84;5074542;28;20733;-74
2023/05/31 07:39:33;;;;;;;9.48;6.40;;;;;;;25.30;100.00;101729.28;5056364;28;20040;-73
2023/05/31 07:41:58;;;;;;;8.20;6.05;;;;;;;25.47;100.00;101765.56;5055896;28;20511;-72
2023/05/31 07:44:24;;;;;;;10.90;6.38;;;;;;;25.03;100.00;101668.47;5073439;28;20033;-74
2023/05/31 07:46:50;;;;;;;11.40;6.25;;;;;;;25.98;100.00;101693.69;5055658;28;20043;-74
2023/05/31 07:49:16;;;;;;;9.63;5.95;;;;;;;25.57;100.00;101711.13;5073624;28;20036;-74
2023/05/31 07:51:41;;;;;;;8.40;5.90;;;;;;;25.82;100.00;101723.44;5073924;28;20028;-72
2023/05/31 07:54:06;;;;;;;12.43;6.75;;;;;;;25.85;100.00;101703.22;5073317;28;20042;-73
2023/05/31 07:56:32;;;;;;;9.27;6.40;;;;;;;25.61;100.00;101679.56;5055015;28;20170;-73
2023/05/31 07:58:57;;;;;;;9.05;6.35;;;;;;;26.57;100.00;101714.13;5073290;28;20086;-73
2023/05/31 08:01:23;;;;;;;11.88;6.28;;;;;;;25.29;100.00;101672.06;5074032;28;20025;-73
2023/05/31 08:03:51;;;;;;;7.28;5.97;;;;;;;25.82;100.00;101627.84;5073028;28;20032;-72
2023/05/31 08:06:17;;;;;;;7.35;5.90;;;;;;;26.28;100.00;101641.34;5074290;28;20035;-74
2023/05/31 08:08:43;;;;;;;6.40;5.75;;;;;;;26.88;100.00;101633.75;5074011;28;20099;-74
2023/05/31 08:11:08;;;;;;;9.90;6.22;;;;;;;26.18;100.00;101659.38;5055695;28;20429;-73
2023/05/31 08:13:34;;;;;;;6.88;6.18;;;;;;;26.81;100.00;101658.59;5055630;28;20028;-74
2023/05/31 08:15:59;;;;;;;7.80;5.88;;;;;;;26.79;100.00;101648.28;5055468;28;20052;-73
2023/05/31 08:18:25;;;;;;;10.18;5.97;;;;;;;26.64;100.00;101647.50;5072745;28;20025;-73
2023/05/31 08:20:50;;;;;;;10.02;6.47;;;;;;;26.86;100.00;101644.28;5073027;28;20028;-74
2023/05/31 08:23:19;;;;;;;6.47;5.88;;;;;;;25.99;100.00;101632.78;5055238;28;20082;-74
2023/05/31 08:25:45;;;;;;;8.40;5.95;;;;;;;26.64;100.00;101532.66;5073179;28;20437;-73
2023/05/31 08:28:10;;;;;;;8.85;6.13;;;;;;;26.84;100.00;101611.41;5072653;28;20030;-73
2023/05/31 08:30:36;;;;;;;12.18;7.03;;;;;;;26.70;100.00;101541.00;5053750;28;20032;-73
2023/05/31 08:33:02;;;;;;;9.88;6.00;;;;;;;26.48;100.00;101558.13;5054872;28;20036;-73
2023/05/31 08:35:27;;;;;;;6.43;5.78;;;;;;;26.84;100.00;101596.56;5072945;28;20039;-72
2023/05/31 08:37:54;;;;;;;12.13;7.63;;;;;;;27.32;100.00;101579.19;5054860;28;20024;-73
2023/05/31 08:40:20;;;;;;;9.57;6.95;;;;;;;27.04;100.00;101574.28;5072690;28;20032;-73
2023/05/31 08:43:15;;;;;;;10.18;7.82;;;;;;;27.83;100.00;101536.16;5072280;28;20044;-73
2023/05/31 08:45:43;;;;;;;7.93;5.13;;;;;;;26.83;100.00;101414.72;5070504;28;20044;-73
2023/05/31 08:48:14;;;;;;;10.38;5.95;;;;;;;27.81;100.00;101526.78;5072176;28;20036;-73
2023/05/31 08:50:42;;;;;;;9.57;6.43;;;;;;;27.63;100.00;101541.22;5054578;28;20024;-73
2023/05/31 08:53:08;;;;;;;8.90;5.65;;;;;;;27.27;100.00;101549.94;5072325;28;20043;-73
2023/05/31 08:55:35;;;;;;;6.65;5.10;;;;;;;26.95;100.00;101478.28;5054426;28;20082;-73
2023/05/31 08:58:02;;;;;;;7.45;5.55;;;;;;;27.48;100.00;101484.84;5072561;28;20032;-73
2023/05/31 09:00:28;;;;;;;7.90;5.45;;;;;;;27.42;100.00;101429.47;5072472;28;20067;-73
2023/05/31 09:02:54;;;;;;;7.53;5.15;;;;;;;28.67;100.00;101412.75;5073428;28;20063;-73
2023/05/31 09:05:21;;;;;;;7.82;5.28;;;;;;;28.07;100.00;101279.75;5072765;28;20487;-73
2023/05/31 09:07:49;;;;;;;9.85;6.60;;;;;;;26.44;100.00;101198.41;5054674;28;20035;-73
2023/05/31 09:10:16;;;;;;;7.75;5.85;;;;;;;27.60;100.00;101176.28;5054337;28;20033;-73
2023/05/31 09:12:42;;;;;;;8.10;5.53;;;;;;;27.27;100.00;101158.03;5054555;28;20032;-72
2023/05/31 09:15:14;;;;;;;8.40;5.75;;;;;;;26.25;100.00;101096.34;5072089;28;20533;-72
2023/05/31 09:17:44;;;;;;;6.68;5.35;;;;;;;26.11;100.00;101073.06;5072142;28;20511;-73
2023/05/31 09:20:10;;;;;;;7.20;5.47;;;;;;;27.41;100.00;101103.75;5071858;28;20079;-73
2023/05/31 09:22:35;;;;;;;9.55;5.53;;;;;;;27.24;100.00;101077.28;5071974;28;20032;-73
2023/05/31 09:25:01;;;;;;;11.45;5.45;;;;;;;27.47;100.00;101088.53;5063004;28;20040;-73
2023/05/31 09:27:34;;;;;;;9.15;5.40;;;;;;;27.65;100.00;101110.59;5071773;28;20036;-72
2023/05/31 09:30:05;;;;;;;7.90;5.25;;;;;;;26.91;100.00;101113.88;5072004;28;20040;-73
2023/05/31 09:32:31;;;;;;;7.25;5.07;;;;;;;26.32;100.00;101097.56;5071573;28;20032;-72
2023/05/31 09:35:17;;;;;;;8.77;6.28;;;;;;;26.51;100.00;101163.06;5053434;28;20039;-72
2023/05/31 09:37:48;;;;;;;6.68;5.28;;;;;;;26.91;100.00;101190.44;5053038;28;20047;-72
2023/05/31 09:40:26;;;;;;;6.57;5.60;;;;;;;26.68;100.00;101204.38;5053461;28;20029;-72
2023/05/31 09:42:53;;;;;;;9.73;5.70;;;;;;;26.87;100.00;101181.19;5071469;28;20040;-74
2023/05/31 09:45:20;;;;;;;8.75;5.28;;;;;;;25.78;100.00;101158.03;5071498;28;20029;-72
2023/05/31 09:47:46;;;;;;;8.55;5.13;;;;;;;26.40;100.00;101257.78;5071575;28;20158;-72
2023/05/31 09:50:17;;;;;;;11.52;5.07;;;;;;;27.12;100.00;101245.41;5071421;28;20032;-71
2023/05/31 09:52:47;;;;;;;5.47;4.97;;;;;;;27.29;100.00;101261.47;5052509;28;20518;-71
2023/05/31 09:55:16;;;;;;;12.57;5.30;;;;;;;27.89;100.00;101296.88;5071858;28;20055;-73
2023/05/31 09:57:43;;;;;;;7.45;5.28;;;;;;;26.85;100.00;101324.06;5069663;28;20335;-72
2023/05/31 10:00:18;;;;;;;10.13;5.10;;;;;;;27.15;100.00;101311.34;5070459;28;20044;-73
2023/05/31 10:02:45;;;;;;;7.72;5.57;;;;;;;27.39;100.00;101414.00;5071505;28;20119;-72
2023/05/31 10:05:12;;;;;;;6.78;4.90;;;;;;;27.15;100.00;101446.34;5071327;28;20036;-73
2023/05/31 10:07:42;;;;;;;9.32;5.90;;;;;;;27.01;100.00;101392.50;5053173;28;20028;-73
2023/05/31 10:10:19;;;;;;;11.07;5.55;;;;;;;27.73;100.00;101443.66;5066813;28;20059;-73
2023/05/31 10:12:49;;;;;;;9.52;5.10;;;;;;;27.87;100.00;101417.28;5071071;28;20032;-73
2023/05/31 10:15:21;;;;;;;6.47;5.10;;;;;;;26.42;100.00;101362.06;5070591;28;20101;-73
2023/05/31 10:18:00;;;;;;;5.53;4.72;;;;;;;26.68;100.00;101253.16;5071039;28;20051;-73
2023/05/31 10:20:32;;;;;;;7.03;4.50;;;;;;;27.80;100.00;101340.28;5053129;28;20391;-72
2023/05/31 10:23:02;;;;;;;6.85;4.75;;;;;;;27.59;100.00;101300.13;5071080;28;20355;-73
2023/05/31 10:26:00;;;;;;;9.95;5.05;;;;;;;28.17;100.00;101268.41;5070360;28;20062;-73
2023/05/31 10:28:30;;;;;;;10.63;4.72;;;;;;;26.45;100.00;101207.88;5065934;28;20517;-75
2023/05/31 10:30:57;;;;;;;6.88;4.45;;;;;;;26.72;100.00;101132.72;5070933;28;20135;-74
2023/05/31 10:33:28;;;;;;;7.75;4.70;;;;;;;27.82;100.00;101178.03;5070626;28;20064;-72
2023/05/31 10:35:56;;;;;;;10.90;5.15;;;;;;;28.48;100.00;101088.75;5071001;28;20032;-73
2023/05/31 10:38:27;;;;;;;7.43;4.43;;;;;;;29.37;100.00;101074.91;5052815;28;20450;-73
2023/05/31 10:41:04;;;;;;;8.02;5.35;;;;;;;28.06;100.00;101016.50;5070963;28;20020;-73
2023/05/31 10:43:37;;;;;;;5.50;4.63;;;;;;;27.75;100.00;101210.84;5070816;28;20021;-72
2023/05/31 10:46:13;;;;;;;8.18;4.57;;;;;;;28.13;100.00;101122.28;5070805;28;20063;-73
2023/05/31 10:48:48;;;;;;;5.65;3.70;;;;;;;28.06;100.00;101406.28;5070374;28;20057;-71
2023/05/31 10:51:16;;;;;;;5.95;3.80;;;;;;;28.31;100.00;101445.28;5071430;28;20029;-73
2023/05/31 10:53:45;;;;;;;4.38;3.97;;;;;;;27.35;100.00;101125.16;5056735;28;20059;-72
2023/05/31 10:56:13;;;;;;;6.45;4.05;;;;;;;27.51;100.00;100805.09;5074862;28;20032;-72
2023/05/31 10:58:40;;;;;;;6.63;4.05;;;;;;;27.78;100.00;100748.63;5074828;28;20039;-72
2023/05/31 11:01:11;;;;;;;6.65;3.83;;;;;;;27.35;100.00;100576.47;5074490;28;20149;-71
2023/05/31 11:03:47;;;;;;;6.18;4.00;;;;;;;27.43;100.00;101320.56;5074531;28;20043;-72
2023/05/31 11:06:15;;;;;;;6.82;3.63;;;;;;;27.88;100.00;101564.59;5074651;28;20044;-72
2023/05/31 11:08:59;;;;;;;5.45;3.45;;;;;;;28.49;100.00;101530.22;5074524;28;20078;-75
2023/05/31 11:11:25;;;;;;;5.43;3.30;;;;;;;28.38;100.00;101658.50;5056571;28;20407;-74
2023/05/31 11:14:06;;;;;;;4.90;3.50;;;;;;;28.17;100.00;101495.22;5074312;28;20499;-71